Time;durP1;ratioP1;P1;durP2;ratioP2;P2;SDS_P1;SDS_P2;PMS_P1;PMS_P2;Temp;Humidity;BMP_temperature;BMP_pressure;BME280_temperature;BME280_humidity;BME280_pressure;Samples;Min_cycle;Max_cycle;Signal;HPM_P1;HPM_P2
2022/07/25 00:01:48;;;;;;;0.00;0.00;;;20.40;99.90;;;;;;5013056;28;20045;-75
2022/07/25 00:04:14;;;;;;;0.17;0.08;;;20.30;99.90;;;;;;5013093;28;20038;-75
2022/07/25 00:06:40;;;;;;;0.10;0.10;;;20.30;99.90;;;;;;5013208;28;20056;-75
2022/07/25 00:09:06;;;;;;;0.05;0.05;;;20.30;99.90;;;;;;5013054;28;20390;-75
2022/07/25 00:11:32;;;;;;;0.20;0.17;;;20.40;99.90;;;;;;5012848;28;20073;-75
2022/07/25 00:13:58;;;;;;;1.10;0.60;;;20.70;99.90;;;;;;5013217;28;20037;-75
2022/07/25 00:16:24;;;;;;;0.32;0.32;;;20.90;99.90;;;;;;5013075;28;20508;-75
2022/07/25 00:18:50;;;;;;;0.95;0.32;;;21.10;99.90;;;;;;5012859;28;20042;-75
2022/07/25 00:21:15;;;;;;;0.20;0.13;;;21.40;99.90;;;;;;5012778;28;20053;-75
2022/07/25 00:23:41;;;;;;;0.22;0.20;;;21.60;99.90;;;;;;5012878;28;20050;-75
2022/07/25 00:26:07;;;;;;;0.10;0.10;;;21.80;99.90;;;;;;5012782;28;20099;-75
2022/07/25 00:28:32;;;;;;;0.90;0.75;;;22.00;99.90;;;;;;5012634;28;20080;-75
2022/07/25 00:30:58;;;;;;;1.35;0.32;;;22.10;99.90;;;;;;5012625;28;20480;-75
2022/07/25 00:33:24;;;;;;;0.38;0.38;;;22.10;99.90;;;;;;5012637;28;20121;-75
2022/07/25 00:35:49;;;;;;;1.35;0.75;;;22.30;99.90;;;;;;5012523;28;20125;-75
2022/07/25 00:38:15;;;;;;;0.63;0.55;;;22.20;99.90;;;;;;5012520;28;20045;-75
2022/07/25 00:40:41;;;;;;;0.00;0.00;;;22.20;99.90;;;;;;5012544;28;20038;-75
2022/07/25 00:43:06;;;;;;;0.75;0.47;;;22.30;99.90;;;;;;5012456;28;20052;-74
2022/07/25 00:45:32;;;;;;;0.43;0.30;;;22.20;99.90;;;;;;5012813;28;20057;-74
2022/07/25 00:47:57;;;;;;;0.17;0.17;;;22.10;99.90;;;;;;5012654;28;20492;-75
2022/07/25 00:50:23;;;;;;;0.15;0.15;;;22.00;99.90;;;;;;5012576;28;20042;-75
2022/07/25 00:52:49;;;;;;;0.20;0.20;;;22.00;99.90;;;;;;5012224;28;20484;-75
2022/07/25 00:55:14;;;;;;;0.63;0.50;;;21.80;99.90;;;;;;5012507;28;20206;-74
2022/07/25 00:57:40;;;;;;;1.92;0.90;;;21.60;99.90;;;;;;5012550;28;20053;-75
2022/07/25 01:00:11;;;;;;;1.05;0.55;;;21.60;99.90;;;;;;5012630;28;20045;-75
2022/07/25 01:02:37;;;;;;;0.80;0.50;;;21.50;99.90;;;;;;5010443;28;20136;-75
2022/07/25 01:05:04;;;;;;;0.47;0.40;;;21.50;99.90;;;;;;5011880;28;20441;-75
2022/07/25 01:07:30;;;;;;;0.40;0.28;;;21.40;99.90;;;;;;5012417;28;20092;-75
2022/07/25 01:09:56;;;;;;;0.45;0.45;;;21.30;99.90;;;;;;5016023;28;20121;-75
2022/07/25 01:12:21;;;;;;;0.22;0.22;;;21.30;99.90;;;;;;5016318;28;20037;-75
2022/07/25 01:14:47;;;;;;;0.40;0.28;;;21.20;99.90;;;;;;5016595;28;20428;-75
2022/07/25 01:17:13;;;;;;;0.47;0.35;;;21.20;99.90;;;;;;5016206;28;20061;-75
2022/07/25 01:19:38;;;;;;;0.90;0.43;;;21.10;99.90;;;;;;5016061;28;20045;-75
2022/07/25 01:22:04;;;;;;;0.55;0.35;;;21.10;99.90;;;;;;5016025;28;20476;-75
2022/07/25 01:24:30;;;;;;;1.25;1.08;;;21.10;99.90;;;;;;5016359;28;20045;-75
2022/07/25 01:26:55;;;;;;;0.73;0.32;;;21.00;99.90;;;;;;5016074;28;20050;-75
2022/07/25 01:29:21;;;;;;;0.55;0.52;;;21.00;99.90;;;;;;5016192;28;20041;-75
2022/07/25 01:31:46;;;;;;;0.38;0.25;;;21.00;99.90;;;;;;5014455;28;20034;-75
2022/07/25 01:34:12;;;;;;;0.63;0.60;;;20.90;99.90;;;;;;5015890;28;20113;-75
2022/07/25 01:36:38;;;;;;;0.20;0.20;;;20.90;99.90;;;;;;5015500;28;20042;-75
2022/07/25 01:39:03;;;;;;;0.57;0.47;;;20.90;99.90;;;;;;5015575;28;20038;-75
2022/07/25 01:41:29;;;;;;;6.82;2.05;;;21.00;99.90;;;;;;5015555;28;20030;-75
2022/07/25 01:43:55;;;;;;;0.82;0.40;;;21.00;99.90;;;;;;5015944;28;20075;-75
2022/07/25 01:46:20;;;;;;;0.85;0.60;;;21.00;99.90;;;;;;5015944;28;20133;-75
2022/07/25 01:48:46;;;;;;;0.65;0.52;;;21.20;99.90;;;;;;5015560;28;20073;-75
2022/07/25 01:51:11;;;;;;;0.90;0.60;;;21.10;99.90;;;;;;5015380;28;20117;-75
2022/07/25 01:53:37;;;;;;;0.43;0.32;;;21.10;99.90;;;;;;5015427;28;20088;-75
2022/07/25 01:56:04;;;;;;;0.68;0.68;;;21.00;99.90;;;;;;5112636;22;20126;-77
2022/07/25 01:58:30;;;;;;;0.77;0.75;;;21.10;99.90;;;;;;5021083;28;20061;-75
2022/07/25 02:00:55;;;;;;;0.25;0.25;;;21.10;99.90;;;;;;5031333;28;20052;-73
2022/07/25 02:03:30;;;;;;;3.28;1.08;;;21.00;99.90;;;;;;5017056;28;20145;-75
2022/07/25 02:06:01;;;;;;;0.20;0.13;;;21.10;99.90;;;;;;5018089;28;20038;-73
2022/07/25 02:08:28;;;;;;;1.08;0.95;;;21.10;99.90;;;;;;5037264;28;20049;-73
2022/07/25 02:10:54;;;;;;;0.43;0.43;;;21.10;99.90;;;;;;5037758;28;20396;-74
2022/07/25 02:13:20;;;;;;;0.65;0.47;;;21.10;99.90;;;;;;5035456;28;20373;-73
2022/07/25 02:15:46;;;;;;;0.57;0.57;;;21.00;99.90;;;;;;5017522;28;20049;-74
2022/07/25 02:18:11;;;;;;;0.80;0.73;;;20.90;99.90;;;;;;5034637;28;20041;-74
2022/07/25 02:20:37;;;;;;;0.70;0.38;;;20.90;99.90;;;;;;5036131;28;20103;-74
2022/07/25 02:23:04;;;;;;;0.15;0.10;;;20.80;99.90;;;;;;5035285;28;20048;-73
2022/07/25 02:25:29;;;;;;;0.95;0.68;;;20.80;99.90;;;;;;5037566;28;20038;-74
2022/07/25 02:27:55;;;;;;;0.70;0.60;;;20.80;99.90;;;;;;5037123;28;20056;-75
2022/07/25 02:30:21;;;;;;;0.75;0.60;;;20.70;99.90;;;;;;5036649;28;20038;-74
2022/07/25 02:32:46;;;;;;;0.35;0.35;;;20.70;99.90;;;;;;5017490;28;20046;-73
2022/07/25 02:35:12;;;;;;;1.73;0.88;;;20.70;99.90;;;;;;5020307;28;20403;-74
2022/07/25 02:37:37;;;;;;;0.55;0.43;;;20.60;99.90;;;;;;5035952;28;20151;-73
2022/07/25 02:40:04;;;;;;;0.85;0.77;;;20.80;99.90;;;;;;5037218;28;20441;-73
2022/07/25 02:42:29;;;;;;;3.25;0.85;;;20.60;99.90;;;;;;5037260;28;20047;-74
2022/07/25 02:44:55;;;;;;;0.85;0.75;;;20.60;99.90;;;;;;5036751;28;20045;-73
2022/07/25 02:47:20;;;;;;;1.20;0.82;;;20.50;99.90;;;;;;5036267;28;20041;-73
2022/07/25 02:49:46;;;;;;;0.75;0.52;;;20.60;99.90;;;;;;5036187;28;20041;-73
2022/07/25 02:52:12;;;;;;;0.47;0.38;;;20.60;99.90;;;;;;5036031;28;20540;-73
2022/07/25 02:54:37;;;;;;;0.63;0.52;;;20.90;99.90;;;;;;5036240;28;20041;-73
2022/07/25 02:57:03;;;;;;;0.55;0.40;;;20.80;99.90;;;;;;5025983;28;20133;-73
2022/07/25 02:59:29;;;;;;;1.95;1.30;;;20.70;99.90;;;;;;5016550;28;20096;-74
2022/07/25 03:01:54;;;;;;;0.25;0.25;;;20.50;99.90;;;;;;5016032;28;20050;-73
2022/07/25 03:04:20;;;;;;;0.90;0.57;;;20.60;99.90;;;;;;5016125;28;20077;-74
2022/07/25 03:06:45;;;;;;;0.10;0.10;;;20.50;99.90;;;;;;5015424;28;20396;-73
2022/07/25 03:09:11;;;;;;;0.17;0.15;;;20.50;99.90;;;;;;5016445;28;20048;-74
2022/07/25 03:11:37;;;;;;;0.95;0.57;;;20.40;99.90;;;;;;5014480;28;20081;-74
2022/07/25 03:14:03;;;;;;;2.17;1.45;;;20.30;99.90;;;;;;5013082;28;20041;-74
2022/07/25 03:16:28;;;;;;;0.63;0.63;;;20.20;99.90;;;;;;5020234;28;20121;-73
2022/07/25 03:18:54;;;;;;;3.20;0.45;;;20.20;99.90;;;;;;5011386;28;20768;-72
2022/07/25 03:21:20;;;;;;;0.68;0.40;;;20.10;99.90;;;;;;5013552;28;20057;-73
2022/07/25 03:23:45;;;;;;;10.80;1.27;;;20.10;99.90;;;;;;5000078;28;20105;-73
2022/07/25 03:26:11;;;;;;;0.30;0.30;;;20.00;99.90;;;;;;4996828;28;20050;-74
2022/07/25 03:28:37;;;;;;;1.10;1.00;;;19.90;99.90;;;;;;5014435;28;20034;-72
2022/07/25 03:31:03;;;;;;;1.42;0.82;;;19.80;99.90;;;;;;5015861;28;20049;-72
2022/07/25 03:33:29;;;;;;;0.13;0.13;;;19.70;99.90;;;;;;5015397;28;20183;-76
2022/07/25 03:35:55;;;;;;;0.10;0.10;;;19.60;99.90;;;;;;4996297;28;20443;-75
2022/07/25 03:38:21;;;;;;;0.22;0.22;;;19.60;99.90;;;;;;5011283;28;20477;-75
2022/07/25 03:40:46;;;;;;;0.47;0.40;;;19.40;99.90;;;;;;5016126;28;20049;-74
2022/07/25 03:43:12;;;;;;;0.15;0.15;;;19.40;99.90;;;;;;4998343;28;20052;-74
2022/07/25 03:45:38;;;;;;;2.17;1.10;;;19.40;99.90;;;;;;5015236;28;20041;-74
2022/07/25 03:48:04;;;;;;;1.20;0.88;;;19.50;99.90;;;;;;5015477;28;20064;-73
2022/07/25 03:50:29;;;;;;;1.30;0.98;;;19.40;99.90;;;;;;5015329;28;20412;-73
2022/07/25 03:52:55;;;;;;;3.10;0.20;;;19.40;99.90;;;;;;5015183;28;20136;-73
2022/07/25 03:55:20;;;;;;;0.52;0.47;;;19.30;99.90;;;;;;5015233;28;20088;-73
2022/07/25 03:57:46;;;;;;;0.28;0.25;;;19.30;99.90;;;;;;5014030;28;20049;-74
2022/07/25 04:00:12;;;;;;;0.20;0.20;;;19.30;99.90;;;;;;5014850;28;20042;-74
2022/07/25 04:02:38;;;;;;;0.75;0.60;;;19.30;99.90;;;;;;5015205;28;20480;-74
2022/07/25 04:05:05;;;;;;;2.92;0.63;;;19.20;99.90;;;;;;5014855;28;20042;-73
2022/07/25 04:07:30;;;;;;;0.20;0.20;;;19.20;99.90;;;;;;5015787;28;20038;-74
2022/07/25 04:09:56;;;;;;;0.45;0.43;;;19.20;99.90;;;;;;5016058;28;20476;-74
2022/07/25 04:12:22;;;;;;;2.72;0.85;;;19.20;99.90;;;;;;5015553;28;20037;-74
2022/07/25 04:14:47;;;;;;;0.50;0.40;;;19.20;99.90;;;;;;5015276;28;20084;-75
2022/07/25 04:17:13;;;;;;;1.52;0.70;;;19.20;99.90;;;;;;5014704;28;20072;-73
2022/07/25 04:19:39;;;;;;;0.75;0.73;;;19.20;99.90;;;;;;5014732;28;20045;-74
2022/07/25 04:22:04;;;;;;;1.00;0.60;;;19.10;99.90;;;;;;5014830;28;20045;-73
2022/07/25 04:24:30;;;;;;;2.60;1.38;;;19.20;99.90;;;;;;5014852;28;20053;-74
2022/07/25 04:26:55;;;;;;;0.80;0.65;;;19.20;99.90;;;;;;5013964;28;20767;-73
2022/07/25 04:29:21;;;;;;;0.73;0.57;;;19.30;99.90;;;;;;5014531;28;20041;-73
2022/07/25 04:31:47;;;;;;;1.08;0.98;;;19.40;99.90;;;;;;4998965;28;20050;-73
2022/07/25 04:34:12;;;;;;;0.30;0.30;;;19.50;99.90;;;;;;4995118;28;20121;-75
2022/07/25 04:36:38;;;;;;;2.13;0.30;;;19.60;99.90;;;;;;4995357;28;20038;-75
2022/07/25 04:39:03;;;;;;;2.42;0.88;;;19.70;99.90;;;;;;5014425;28;20132;-74
2022/07/25 04:41:29;;;;;;;0.88;0.65;;;19.80;99.90;;;;;;5005425;28;20065;-74
2022/07/25 04:43:55;;;;;;;4.15;0.80;;;20.00;99.90;;;;;;5008553;28;20042;-74
2022/07/25 04:46:21;;;;;;;1.77;1.25;;;20.20;99.90;;;;;;5004555;28;20050;-74
2022/07/25 04:48:47;;;;;;;1.80;1.33;;;20.60;99.90;;;;;;5003419;28;20064;-73
2022/07/25 04:51:13;;;;;;;0.82;0.63;;;21.30;99.90;;;;;;5004123;28;20038;-74
2022/07/25 04:53:38;;;;;;;1.20;0.73;;;21.80;99.90;;;;;;5003011;28;20041;-74
2022/07/25 04:56:05;;;;;;;1.15;0.95;;;21.90;99.90;;;;;;5002308;28;20038;-75
2022/07/25 04:58:31;;;;;;;2.30;0.80;;;21.90;99.90;;;;;;5010672;28;20123;-75
2022/07/25 05:00:57;;;;;;;3.67;1.45;;;22.10;99.90;;;;;;5014310;28;20487;-74
2022/07/25 05:03:23;;;;;;;0.63;0.63;;;22.00;99.90;;;;;;5012738;28;20050;-75
2022/07/25 05:05:51;;;;;;;0.35;0.35;;;21.90;99.90;;;;;;5014490;28;20056;-73
2022/07/25 05:08:17;;;;;;;1.58;0.93;;;21.80;99.90;;;;;;5014411;28;20487;-73
2022/07/25 05:10:43;;;;;;;2.72;1.00;;;22.10;99.90;;;;;;5013919;28;20045;-75
2022/07/25 05:13:09;;;;;;;0.57;0.50;;;21.70;99.90;;;;;;5011681;28;20052;-73
2022/07/25 05:15:35;;;;;;;1.48;0.82;;;21.80;99.90;;;;;;5011546;28;20470;-74
2022/07/25 05:18:01;;;;;;;5.25;1.58;;;22.00;99.90;;;;;;5011412;28;20121;-75
2022/07/25 05:20:26;;;;;;;1.30;0.90;;;22.10;99.90;;;;;;5011400;28;20085;-73
2022/07/25 05:22:52;;;;;;;2.83;1.55;;;22.20;99.90;;;;;;5011529;28;20046;-74
2022/07/25 05:25:18;;;;;;;1.27;0.68;;;22.50;99.90;;;;;;5012305;28;20077;-74
2022/07/25 05:27:44;;;;;;;0.63;0.45;;;22.50;99.90;;;;;;5011051;28;20053;-75
2022/07/25 05:30:11;;;;;;;3.25;1.00;;;22.70;99.90;;;;;;5011551;28;20084;-73
2022/07/25 05:32:39;;;;;;;0.63;0.57;;;22.70;99.90;;;;;;4998345;28;20540;-74
2022/07/25 05:35:06;;;;;;;1.63;1.05;;;22.60;99.90;;;;;;5013302;28;20561;-75
2022/07/25 05:37:33;;;;;;;1.02;0.90;;;22.50;99.90;;;;;;5013948;28;20073;-74
2022/07/25 05:39:58;;;;;;;2.15;1.33;;;22.60;99.90;;;;;;5014365;28;20049;-73
2022/07/25 05:42:24;;;;;;;0.80;0.80;;;22.50;99.90;;;;;;5015220;28;20046;-73
2022/07/25 05:44:50;;;;;;;12.82;1.85;;;22.40;99.90;;;;;;5014996;28;20049;-74
2022/07/25 05:47:15;;;;;;;0.57;0.52;;;23.10;99.90;;;;;;5015279;28;20049;-74
2022/07/25 05:49:44;;;;;;;4.43;2.13;;;22.50;99.90;;;;;;5015677;28;20050;-74
2022/07/25 05:52:10;;;;;;;0.93;0.70;;;22.70;99.90;;;;;;5015074;28;20038;-73
2022/07/25 05:54:36;;;;;;;0.98;0.68;;;22.80;99.90;;;;;;5014471;28;20052;-73
2022/07/25 05:57:01;;;;;;;0.22;0.22;;;22.90;99.90;;;;;;5017493;28;20057;-74
2022/07/25 05:59:27;;;;;;;0.57;0.52;;;23.00;99.90;;;;;;5031655;28;20053;-75
2022/07/25 06:01:53;;;;;;;1.42;1.17;;;23.10;99.90;;;;;;5022156;28;20042;-74
2022/07/25 06:04:18;;;;;;;1.67;0.70;;;23.20;99.90;;;;;;5017629;28;20073;-75
2022/07/25 06:06:49;;;;;;;3.80;2.10;;;23.60;99.90;;;;;;5017561;28;20069;-74
2022/07/25 06:09:16;;;;;;;0.40;0.40;;;23.70;99.90;;;;;;5017353;28;20416;-74
2022/07/25 06:11:42;;;;;;;1.70;1.20;;;23.70;99.90;;;;;;5019291;28;20050;-74
2022/07/25 06:14:08;;;;;;;0.25;0.25;;;23.90;99.90;;;;;;5017938;28;20046;-74
2022/07/25 06:16:33;;;;;;;0.40;0.40;;;24.30;99.90;;;;;;5018954;28;20049;-73
2022/07/25 06:18:59;;;;;;;1.08;0.85;;;24.90;99.90;;;;;;5019122;28;20073;-73
2022/07/25 06:21:25;;;;;;;0.88;0.47;;;25.20;99.90;;;;;;5017933;28;20042;-74
2022/07/25 06:23:51;;;;;;;2.15;0.77;;;25.20;99.40;;;;;;5019774;28;20049;-75
2022/07/25 06:26:17;;;;;;;2.65;1.52;;;25.30;99.90;;;;;;5021344;28;20068;-74
2022/07/25 06:28:42;;;;;;;0.20;0.20;;;25.50;98.40;;;;;;5030461;28;20061;-74
2022/07/25 06:31:08;;;;;;;0.95;0.82;;;25.40;95.90;;;;;;5037331;28;20097;-74
2022/07/25 06:33:33;;;;;;;0.80;0.65;;;25.20;97.90;;;;;;5035745;28;20100;-73
2022/07/25 06:35:59;;;;;;;1.15;0.73;;;25.50;98.50;;;;;;5039205;28;20056;-73
2022/07/25 06:38:25;;;;;;;2.95;1.05;;;24.60;99.90;;;;;;5039025;28;20030;-74
2022/07/25 06:40:50;;;;;;;2.20;1.33;;;24.30;99.90;;;;;;5038804;28;20065;-74
2022/07/25 06:43:16;;;;;;;2.08;1.17;;;24.20;99.90;;;;;;5039492;28;20057;-74
2022/07/25 06:45:50;;;;;;;1.05;0.82;;;24.80;99.90;;;;;;5038756;28;20057;-75
2022/07/25 06:48:16;;;;;;;1.23;1.10;;;24.50;99.90;;;;;;5037339;28;20060;-76
2022/07/25 06:50:42;;;;;;;0.73;0.35;;;25.10;99.90;;;;;;5037525;28;20066;-74
2022/07/25 06:53:08;;;;;;;1.38;0.85;;;25.30;98.70;;;;;;5035207;28;20028;-75
2022/07/25 06:55:34;;;;;;;0.63;0.50;;;25.60;97.20;;;;;;5033190;28;20057;-73
2022/07/25 06:57:59;;;;;;;1.05;0.82;;;25.90;95.10;;;;;;5027871;28;20065;-74
2022/07/25 07:00:25;;;;;;;2.22;0.98;;;26.60;94.10;;;;;;5036504;28;20050;-74
2022/07/25 07:02:54;;;;;;;1.42;1.00;;;27.20;89.90;;;;;;5037517;28;20041;-73
2022/07/25 07:05:20;;;;;;;4.88;1.67;;;27.20;78.60;;;;;;5033069;28;20054;-72
2022/07/25 07:07:46;;;;;;;0.70;0.50;;;27.80;71.10;;;;;;5026078;28;20456;-73
2022/07/25 07:10:12;;;;;;;1.70;1.15;;;28.60;72.60;;;;;;5014843;28;20080;-74
2022/07/25 07:12:37;;;;;;;1.50;0.77;;;29.30;51.60;;;;;;5012485;28;20493;-73
2022/07/25 07:15:03;;;;;;;0.98;0.80;;;29.50;38.20;;;;;;5008590;28;20484;-73
2022/07/25 07:17:29;;;;;;;1.30;0.70;;;29.60;33.70;;;;;;5003236;28;20053;-74
2022/07/25 07:19:55;;;;;;;0.60;0.55;;;29.20;33.70;;;;;;5000076;28;20049;-73
2022/07/25 07:22:20;;;;;;;1.05;0.73;;;28.60;30.10;;;;;;5006208;28;20077;-72
2022/07/25 07:24:46;;;;;;;1.35;1.17;;;28.00;43.00;;;;;;5016211;28;20049;-73
2022/07/25 07:27:12;;;;;;;3.63;0.70;;;27.80;54.50;;;;;;5004590;28;20065;-72
2022/07/25 07:29:40;;;;;;;0.65;0.50;;;27.50;58.60;;;;;;5003383;28;20050;-73
2022/07/25 07:32:06;;;;;;;1.77;1.38;;;27.30;64.90;;;;;;5000955;28;20153;-71
2022/07/25 07:34:32;;;;;;;1.48;0.77;;;27.10;69.80;;;;;;5000113;28;20100;-72
2022/07/25 07:36:58;;;;;;;0.30;0.30;;;26.90;70.50;;;;;;5002843;28;20056;-74
2022/07/25 07:39:23;;;;;;;2.55;1.05;;;26.60;77.20;;;;;;4999677;28;20042;-73
2022/07/25 07:41:52;;;;;;;1.00;0.85;;;26.40;82.50;;;;;;4994574;28;20129;-73
2022/07/25 07:44:17;;;;;;;1.17;0.73;;;26.30;84.80;;;;;;5011362;28;20107;-73
2022/07/25 07:46:43;;;;;;;2.70;0.98;;;26.30;86.80;;;;;;5011352;28;20124;-72
2022/07/25 07:49:09;;;;;;;1.25;1.15;;;26.30;87.80;;;;;;5011247;28;20048;-73
2022/07/25 07:51:34;;;;;;;0.60;0.45;;;26.30;87.20;;;;;;5011762;28;20512;-74
2022/07/25 07:56:46;;;;;;;1.23;1.13;;;26.00;93.60;;;;;;5011319;28;20111;-72
2022/07/25 07:59:12;;;;;;;1.27;1.00;;;26.40;93.60;;;;;;5011906;28;20049;-72
2022/07/25 08:01:38;;;;;;;1.25;0.90;;;26.60;91.80;;;;;;5006944;28;20046;-73
2022/07/25 08:04:03;;;;;;;1.23;0.93;;;26.90;90.40;;;;;;5010120;28;20496;-73
2022/07/25 08:06:29;;;;;;;1.30;0.93;;;27.00;87.80;;;;;;5025587;28;20050;-74
2022/07/25 08:08:55;;;;;;;1.75;1.33;;;27.10;90.50;;;;;;5010487;28;20172;-73
2022/07/25 08:11:20;;;;;;;0.85;0.73;;;27.30;83.90;;;;;;5011258;28;20050;-72
2022/07/25 08:13:46;;;;;;;0.77;0.65;;;27.20;83.00;;;;;;5011218;28;20117;-73
2022/07/25 08:16:12;;;;;;;28.58;1.40;;;27.30;83.60;;;;;;5011019;28;20038;-74
2022/07/25 08:18:38;;;;;;;0.77;0.52;;;27.10;82.60;;;;;;5009973;28;20050;-71
2022/07/25 08:21:05;;;;;;;0.70;0.70;;;26.80;83.00;;;;;;5010615;28;20404;-72
2022/07/25 08:23:34;;;;;;;1.15;0.77;;;26.50;85.60;;;;;;5002643;28;20060;-73
2022/07/25 08:26:01;;;;;;;1.80;0.82;;;26.20;83.70;;;;;;5011558;28;20497;-74
2022/07/25 08:28:27;;;;;;;2.67;1.17;;;25.90;89.30;;;;;;5002295;28;20550;-74
2022/07/25 08:30:53;;;;;;;1.27;0.88;;;26.00;91.90;;;;;;5002625;28;20038;-73
2022/07/25 08:33:19;;;;;;;0.68;0.57;;;26.00;93.20;;;;;;4999556;28;20046;-73
2022/07/25 08:35:52;;;;;;;0.80;0.80;;;26.30;93.00;;;;;;5007400;28;20115;-74
2022/07/25 08:38:34;;;;;;;0.43;0.38;;;26.40;89.20;;;;;;5010199;28;20058;-74
2022/07/25 08:41:02;;;;;;;1.15;0.55;;;27.00;88.20;;;;;;5010097;28;20144;-74
2022/07/25 08:43:31;;;;;;;0.73;0.60;;;27.40;78.40;;;;;;5011265;28;20045;-73
2022/07/25 08:45:59;;;;;;;0.95;0.60;;;27.60;73.40;;;;;;5011200;28;20041;-73
2022/07/25 08:48:25;;;;;;;0.63;0.63;;;27.30;61.90;;;;;;4993481;28;20081;-71
2022/07/25 08:50:53;;;;;;;0.32;0.32;;;27.00;62.60;;;;;;5011017;28;20069;-74
2022/07/25 08:53:20;;;;;;;0.75;0.38;;;26.70;64.00;;;;;;5009491;28;20121;-72
2022/07/25 08:55:46;;;;;;;0.90;0.60;;;26.30;71.60;;;;;;5009723;28;20563;-73
2022/07/25 08:58:14;;;;;;;0.70;0.45;;;26.00;75.70;;;;;;5008786;28;20054;-73
2022/07/25 09:00:41;;;;;;;0.30;0.30;;;25.80;85.10;;;;;;5010152;28;20042;-73
2022/07/25 09:03:07;;;;;;;0.35;0.32;;;25.80;88.70;;;;;;5009504;28;20124;-73
2022/07/25 09:05:34;;;;;;;0.47;0.10;;;25.60;90.60;;;;;;5010330;28;20500;-72
2022/07/25 09:08:15;;;;;;;2.60;0.60;;;25.60;92.00;;;;;;5009483;28;20046;-73
2022/07/25 09:10:46;;;;;;;0.98;0.40;;;25.50;93.40;;;;;;5009786;28;20108;-73
2022/07/25 09:13:13;;;;;;;0.28;0.22;;;25.50;93.50;;;;;;5010158;28;20052;-74
2022/07/25 09:15:44;;;;;;;1.92;0.52;;;25.40;94.90;;;;;;5009885;28;20049;-72
2022/07/25 09:18:14;;;;;;;0.95;0.43;;;25.20;95.30;;;;;;5009744;28;20043;-72
2022/07/25 09:20:48;;;;;;;1.08;0.50;;;25.30;96.90;;;;;;5010000;28;20431;-73
2022/07/25 09:23:31;;;;;;;0.25;0.25;;;25.50;97.00;;;;;;5009573;28;20068;-73
2022/07/25 09:26:08;;;;;;;0.77;0.30;;;25.80;95.80;;;;;;5010294;28;20056;-73
2022/07/25 09:28:46;;;;;;;0.30;0.30;;;26.40;93.70;;;;;;5009838;28;20121;-72
2022/07/25 09:31:13;;;;;;;0.22;0.20;;;26.70;91.80;;;;;;5014045;28;20157;-72
2022/07/25 09:33:51;;;;;;;2.92;1.48;;;27.10;89.50;;;;;;5013740;28;20519;-74
2022/07/25 09:36:17;;;;;;;0.30;0.15;;;27.40;80.20;;;;;;5013633;28;20104;-73
2022/07/25 09:38:58;;;;;;;0.00;0.00;;;27.30;49.40;;;;;;5012919;28;20486;-73
2022/07/25 09:41:40;;;;;;;0.00;0.00;;;27.30;44.70;;;;;;5013742;28;20087;-73
2022/07/25 09:44:17;;;;;;;3.50;0.50;;;27.20;44.20;;;;;;5011938;28;20073;-73
2022/07/25 09:46:43;;;;;;;1.25;0.60;;;27.20;44.30;;;;;;5015593;28;20117;-72
2022/07/25 09:49:08;;;;;;;0.20;0.15;;;27.30;51.20;;;;;;5015765;28;20066;-72
2022/07/25 09:51:35;;;;;;;4.05;0.60;;;27.30;37.50;;;;;;5016176;28;20041;-73
2022/07/25 09:54:02;;;;;;;0.20;0.17;;;27.80;40.30;;;;;;5014654;28;20038;-72
2022/07/25 09:56:28;;;;;;;0.60;0.35;;;28.60;24.70;;;;;;5028519;28;20084;-72
2022/07/25 09:58:53;;;;;;;0.20;0.20;;;28.90;20.00;;;;;;5036199;28;20143;-71
2022/07/25 10:01:34;;;;;;;0.20;0.20;;;28.80;19.20;;;;;;5036044;28;20049;-70
2022/07/25 10:04:15;;;;;;;0.80;0.32;;;28.90;13.10;;;;;;5036178;28;20046;-72
2022/07/25 10:06:53;;;;;;;0.22;0.17;;;28.90;10.50;;;;;;5024927;28;20416;-71
2022/07/25 10:09:18;;;;;;;0.08;0.08;;;29.00;10.50;;;;;;5015481;28;20129;-71
2022/07/25 10:12:08;;;;;;;0.68;0.40;;;28.80;9.30;;;;;;5015577;28;20121;-71
2022/07/25 10:14:35;;;;;;;0.25;0.25;;;28.50;12.30;;;;;;5015637;28;20046;-71
2022/07/25 10:17:02;;;;;;;1.10;0.77;;;28.60;12.60;;;;;;5015466;28;20073;-70
2022/07/25 10:19:47;;;;;;;0.15;0.13;;;28.60;13.90;;;;;;5015212;28;20053;-71
2022/07/25 10:22:13;;;;;;;0.73;0.47;;;28.90;14.90;;;;;;5015109;28;20058;-72
2022/07/25 10:24:44;;;;;;;0.00;0.00;;;29.30;15.60;;;;;;5015974;28;20046;-72
2022/07/25 10:27:13;;;;;;;0.15;0.15;;;29.70;11.50;;;;;;5016254;28;20092;-72
2022/07/25 10:29:40;;;;;;;0.20;0.20;;;30.20;9.40;;;;;;5015687;28;20135;-70
2022/07/25 10:32:08;;;;;;;0.35;0.35;;;30.30;9.20;;;;;;5015493;28;20412;-71
2022/07/25 10:34:35;;;;;;;0.00;0.00;;;29.90;4.00;;;;;;5014967;28;20052;-70
2022/07/25 10:37:08;;;;;;;12.02;0.45;;;29.40;3.50;;;;;;5015134;28;20130;-71
2022/07/25 10:39:47;;;;;;;0.00;0.00;;;28.90;8.40;;;;;;5015228;28;20042;-71
2022/07/25 10:42:20;;;;;;;0.22;0.22;;;28.70;13.40;;;;;;5015027;28;20054;-72
2022/07/25 10:45:08;;;;;;;0.10;0.10;;;28.90;17.30;;;;;;5015215;28;20053;-72
2022/07/25 10:47:41;;;;;;;0.00;0.00;;;29.10;18.30;;;;;;5015424;28;20510;-72
2022/07/25 10:50:10;;;;;;;0.10;0.10;;;29.50;15.30;;;;;;5015277;28;20431;-71
2022/07/25 10:52:41;;;;;;;0.10;0.10;;;29.30;13.80;;;;;;5014810;28;20121;-72
2022/07/25 10:55:07;;;;;;;0.03;0.03;;;29.00;18.00;;;;;;5014640;28;20614;-72
2022/07/25 10:57:33;;;;;;;0.00;0.00;;;28.40;19.40;;;;;;5012756;28;20060;-72
2022/07/25 11:00:07;;;;;;;0.20;0.10;;;27.70;27.50;;;;;;5014900;28;20058;-72
2022/07/25 11:02:32;;;;;;;0.90;0.50;;;27.00;49.30;;;;;;5015478;28;20129;-73
2022/07/25 11:05:01;;;;;;;0.30;0.13;;;25.80;86.30;;;;;;5015342;28;20471;-73
2022/07/25 11:07:27;;;;;;;0.00;0.00;;;24.60;99.90;;;;;;5011991;28;20057;-73
2022/07/25 11:10:00;;;;;;;1.17;0.30;;;23.50;99.90;;;;;;5007217;28;20115;-73
2022/07/25 11:12:27;;;;;;;1.35;0.38;;;22.70;99.90;;;;;;5015046;28;20050;-74
2022/07/25 11:15:00;;;;;;;0.15;0.10;;;22.50;99.90;;;;;;5015031;28;20787;-73
2022/07/25 11:17:28;;;;;;;0.00;0.00;;;22.40;99.90;;;;;;5014565;28;20121;-73
2022/07/25 11:20:00;;;;;;;0.90;0.57;;;22.30;99.90;;;;;;5014529;28;20038;-73
2022/07/25 11:22:27;;;;;;;4.18;1.02;;;22.50;99.90;;;;;;5014480;28;20042;-73
2022/07/25 11:24:52;;;;;;;0.10;0.05;;;22.70;99.90;;;;;;5014648;28;20139;-74
2022/07/25 11:27:26;;;;;;;0.28;0.20;;;23.60;99.90;;;;;;5014577;28;20085;-74
2022/07/25 11:29:52;;;;;;;0.17;0.15;;;24.30;99.90;;;;;;5012813;28;20488;-72
2022/07/25 11:32:19;;;;;;;0.52;0.30;;;24.80;99.90;;;;;;5013015;28;20046;-73
2022/07/25 11:34:51;;;;;;;0.40;0.32;;;25.10;99.90;;;;;;5013952;28;20511;-74
2022/07/25 11:37:18;;;;;;;0.30;0.28;;;25.50;99.90;;;;;;5013717;28;20042;-74
2022/07/25 11:39:46;;;;;;;0.10;0.10;;;25.20;99.90;;;;;;5014049;28;20038;-76
2022/07/25 11:42:17;;;;;;;0.25;0.25;;;25.30;99.90;;;;;;5014076;28;20068;-73
2022/07/25 11:44:48;;;;;;;0.22;0.22;;;25.70;99.90;;;;;;5014155;28;20096;-72
2022/07/25 11:47:29;;;;;;;0.10;0.10;;;26.00;99.90;;;;;;5013632;28;20083;-73
2022/07/25 11:49:58;;;;;;;0.10;0.10;;;26.30;99.90;;;;;;5012717;28;20121;-73
2022/07/25 11:52:35;;;;;;;0.80;0.20;;;26.70;96.20;;;;;;5013391;28;20155;-73
2022/07/25 11:55:10;;;;;;;0.03;0.03;;;26.60;87.50;;;;;;5013957;28;20131;-73
2022/07/25 11:57:43;;;;;;;0.22;0.20;;;26.40;86.30;;;;;;5013489;28;20054;-73
2022/07/25 12:00:29;;;;;;;0.57;0.38;;;26.60;90.30;;;;;;5012654;28;20042;-72
2022/07/25 12:03:08;;;;;;;0.22;0.17;;;27.00;88.60;;;;;;5013400;28;20635;-73
2022/07/25 12:05:34;;;;;;;0.43;0.35;;;27.40;78.90;;;;;;5014039;28;20372;-72
2022/07/25 12:08:19;;;;;;;1.13;0.50;;;27.40;72.90;;;;;;5013587;28;20050;-72
2022/07/25 12:10:46;;;;;;;3.10;0.77;;;27.20;76.30;;;;;;4994265;28;20062;-72
2022/07/25 12:13:27;;;;;;;0.63;0.50;;;26.60;79.10;;;;;;4994199;28;20042;-72
2022/07/25 12:15:54;;;;;;;0.25;0.25;;;25.80;87.40;;;;;;4993928;28;20050;-73
2022/07/25 12:18:20;;;;;;;0.20;0.20;;;25.40;94.00;;;;;;4993742;28;20074;-72
2022/07/25 12:20:46;;;;;;;1.27;0.60;;;25.30;96.10;;;;;;4993772;28;20476;-73
2022/07/25 12:23:14;;;;;;;0.15;0.15;;;25.60;96.20;;;;;;4998408;28;20088;-73
2022/07/25 12:25:43;;;;;;;1.20;0.52;;;25.90;92.30;;;;;;5013673;28;21319;-73
2022/07/25 12:28:09;;;;;;;0.05;0.05;;;26.60;85.70;;;;;;5013354;28;20057;-73
2022/07/25 12:30:36;;;;;;;2.03;0.40;;;27.20;67.40;;;;;;5012267;28;20046;-72
2022/07/25 12:33:02;;;;;;;0.65;0.20;;;28.30;63.30;;;;;;5013250;28;20113;-72
2022/07/25 12:35:28;;;;;;;1.05;0.55;;;29.50;44.30;;;;;;5013130;28;20077;-73
2022/07/25 12:37:53;;;;;;;0.10;0.10;;;29.20;30.20;;;;;;5012780;28;20048;-73
2022/07/25 12:40:20;;;;;;;0.32;0.32;;;28.50;37.50;;;;;;5013305;28;20045;-73
2022/07/25 12:42:47;;;;;;;0.80;0.35;;;28.70;38.00;;;;;;5013102;28;20077;-72
2022/07/25 12:45:14;;;;;;;0.98;0.70;;;29.20;27.90;;;;;;5013368;28;20061;-73
2022/07/25 12:47:42;;;;;;;2.05;0.57;;;29.60;25.10;;;;;;5013138;28;20052;-74
2022/07/25 12:50:08;;;;;;;0.00;0.00;;;30.00;14.50;;;;;;5013401;28;20100;-73
2022/07/25 12:52:34;;;;;;;0.03;0.00;;;30.20;14.40;;;;;;5013166;28;20041;-73